Time;durP1;ratioP1;P1;durP2;ratioP2;P2;SDS_P1;SDS_P2;PMS_P1;PMS_P2;Temp;Humidity;BMP_temperature;BMP_pressure;BME280_temperature;BME280_humidity;BME280_pressure;Samples;Min_cycle;Max_cycle;Signal;HPM_P1;HPM_P2
2023/08/18 00:02:07;;;;;;;9.32;3.83;;;;;;;18.89;100.00;102363.97;5100292;28;20027;-72
2023/08/18 00:04:32;;;;;;;6.55;3.33;;;;;;;18.97;100.00;102380.06;5065601;28;20085;-73
2023/08/18 00:06:58;;;;;;;9.68;3.45;;;;;;;18.99;100.00;102376.09;5100470;28;20462;-73
2023/08/18 00:09:24;;;;;;;6.30;3.50;;;;;;;18.87;100.00;102350.53;5098135;28;20046;-73
2023/08/18 00:11:50;;;;;;;6.53;3.88;;;;;;;19.00;100.00;102377.75;5099210;28;20023;-73
2023/08/18 00:14:15;;;;;;;7.47;3.58;;;;;;;19.02;100.00;102378.38;5101286;28;20032;-73
2023/08/18 00:16:41;;;;;;;6.13;3.60;;;;;;;19.01;100.00;102378.59;5080882;28;20073;-72
2023/08/18 00:19:06;;;;;;;7.90;3.50;;;;;;;19.01;100.00;102374.00;5098984;28;20036;-73
2023/08/18 00:21:32;;;;;;;7.38;3.63;;;;;;;19.02;100.00;102380.28;5099370;28;20044;-72
2023/08/18 00:23:57;;;;;;;10.60;3.50;;;;;;;19.00;100.00;102372.28;5103372;28;20097;-73
2023/08/18 00:26:23;;;;;;;7.00;3.60;;;;;;;19.01;100.00;102373.16;5103111;28;20063;-72
2023/08/18 00:28:48;;;;;;;5.93;3.50;;;;;;;19.00;100.00;102377.75;5100744;28;20093;-73
2023/08/18 00:31:14;;;;;;;8.65;3.63;;;;;;;18.99;100.00;102381.53;5083185;28;20038;-74
2023/08/18 00:33:39;;;;;;;6.60;3.90;;;;;;;19.02;100.00;102377.56;5100976;28;20027;-73
2023/08/18 00:36:05;;;;;;;7.20;3.72;;;;;;;19.02;100.00;102383.84;5101578;28;20077;-72
2023/08/18 00:38:30;;;;;;;8.77;3.78;;;;;;;18.87;100.00;102361.44;5101443;28;20035;-72
2023/08/18 00:40:56;;;;;;;8.00;3.55;;;;;;;18.90;100.00;102371.09;5101576;28;20028;-73
2023/08/18 00:43:22;;;;;;;6.35;4.07;;;;;;;18.92;100.00;102378.00;5102092;28;20379;-73
2023/08/18 00:45:49;;;;;;;6.90;3.50;;;;;;;18.93;100.00;102395.22;5101349;28;20035;-72
2023/08/18 00:48:16;;;;;;;6.47;3.53;;;;;;;18.90;100.00;102392.91;5101201;28;20047;-72
2023/08/18 00:50:42;;;;;;;9.50;3.58;;;;;;;18.87;100.00;102393.34;5101952;28;20052;-72
2023/08/18 00:53:08;;;;;;;4.68;3.33;;;;;;;18.85;100.00;102396.28;5082321;28;20143;-73
2023/08/18 00:55:34;;;;;;;8.13;3.67;;;;;;;18.74;100.00;102376.00;5099570;28;20028;-74
2023/08/18 00:58:01;;;;;;;5.05;3.60;;;;;;;18.72;100.00;102369.06;5097686;28;20052;-73
2023/08/18 01:00:27;;;;;;;6.50;3.60;;;;;;;18.78;100.00;102392.75;5097970;28;20024;-73
2023/08/18 01:02:53;;;;;;;6.97;3.67;;;;;;;18.70;100.00;102388.31;5098713;28;20059;-73
2023/08/18 01:05:19;;;;;;;6.15;3.58;;;;;;;18.68;100.00;102390.44;5082584;28;20032;-73
2023/08/18 01:07:45;;;;;;;7.18;3.80;;;;;;;18.60;100.00;102373.47;5082289;28;20028;-73
2023/08/18 01:10:12;;;;;;;6.22;3.10;;;;;;;18.62;100.00;102387.75;5100763;28;20028;-72
2023/08/18 01:13:22;;;;;;;6.25;3.65;;;;;;;18.55;100.00;102388.59;5098133;28;20031;-73
2023/08/18 01:15:52;;;;;;;6.75;3.67;;;;;;;18.33;100.00;102364.53;5074095;28;20153;-73
2023/08/18 01:18:19;;;;;;;7.70;3.55;;;;;;;18.45;100.00;102379.19;5098810;28;20024;-71
2023/08/18 01:20:45;;;;;;;7.50;3.92;;;;;;;18.44;100.00;102377.50;5098398;28;20502;-73
2023/08/18 01:23:11;;;;;;;8.02;3.88;;;;;;;18.29;100.00;102355.94;5099308;28;20386;-73
2023/08/18 01:25:37;;;;;;;8.70;3.72;;;;;;;18.42;100.00;102390.53;5100494;28;20032;-73
2023/08/18 01:28:03;;;;;;;9.00;3.72;;;;;;;18.37;100.00;102387.56;5100665;28;20031;-72
2023/08/18 01:30:34;;;;;;;11.98;4.55;;;;;;;18.34;100.00;102386.09;5099334;28;20032;-72
2023/08/18 01:33:08;;;;;;;9.02;4.30;;;;;;;18.32;100.00;102382.78;5102742;28;20014;-72
2023/08/18 01:35:35;;;;;;;11.47;4.63;;;;;;;18.29;100.00;102384.03;5109599;28;20020;-72
2023/08/18 01:38:03;;;;;;;9.65;3.88;;;;;;;18.27;100.00;102383.41;5105315;28;20458;-73
2023/08/18 01:40:30;;;;;;;6.88;3.72;;;;;;;18.27;100.00;102383.41;5097408;28;20032;-71
2023/08/18 01:42:58;;;;;;;7.63;4.07;;;;;;;18.26;100.00;102380.91;5099838;28;20213;-73
2023/08/18 01:45:23;;;;;;;9.27;3.92;;;;;;;18.21;100.00;102383.41;5101046;28;20027;-73
2023/08/18 01:47:49;;;;;;;7.18;3.63;;;;;;;18.13;100.00;102364.56;5100511;28;20032;-73
2023/08/18 01:50:14;;;;;;;8.38;4.43;;;;;;;18.15;100.00;102363.31;5098963;28;20078;-72
2023/08/18 01:52:40;;;;;;;9.13;4.50;;;;;;;18.10;100.00;102364.97;5101391;28;20512;-72
2023/08/18 01:55:05;;;;;;;6.88;3.80;;;;;;;18.02;100.00;102352.44;5103813;28;20076;-73
2023/08/18 01:57:31;;;;;;;9.77;4.20;;;;;;;18.06;100.00;102356.41;5104984;28;20035;-73
2023/08/18 01:59:56;;;;;;;11.82;3.90;;;;;;;18.06;100.00;102359.13;5088496;28;20043;-73
2023/08/18 02:02:22;;;;;;;7.53;3.67;;;;;;;18.02;100.00;102349.72;5106652;28;20025;-73
2023/08/18 02:04:47;;;;;;;7.88;3.53;;;;;;;17.97;100.00;102346.75;5105333;28;20031;-73
2023/08/18 02:07:13;;;;;;;10.00;3.92;;;;;;;17.96;100.00;102347.81;5071683;28;20097;-73
2023/08/18 02:09:38;;;;;;;8.48;3.78;;;;;;;17.92;100.00;102343.84;5105747;28;20043;-73
2023/08/18 02:12:04;;;;;;;5.78;3.88;;;;;;;17.92;100.00;102339.25;5106933;28;20028;-73
2023/08/18 02:14:30;;;;;;;9.02;4.57;;;;;;;17.88;100.00;102318.94;5105903;28;20047;-72
2023/08/18 02:16:58;;;;;;;7.55;4.43;;;;;;;17.97;100.00;102331.25;5105424;28;20024;-73
2023/08/18 02:19:24;;;;;;;6.75;4.20;;;;;;;17.96;100.00;102340.47;5105673;28;20119;-71
2023/08/18 02:21:49;;;;;;;8.93;4.40;;;;;;;17.94;100.00;102339.84;5105289;28;20119;-72
2023/08/18 02:24:15;;;;;;;8.00;4.35;;;;;;;17.91;100.00;102328.53;5101814;28;20073;-72
2023/08/18 02:26:41;;;;;;;7.38;4.57;;;;;;;17.98;100.00;102340.25;5067752;28;20060;-73
2023/08/18 02:29:06;;;;;;;6.78;4.10;;;;;;;17.99;100.00;102336.50;5106427;28;20020;-72
2023/08/18 02:31:31;;;;;;;10.00;4.65;;;;;;;17.93;100.00;102312.84;5105981;28;20123;-72
2023/08/18 02:33:57;;;;;;;10.05;4.60;;;;;;;18.04;100.00;102340.25;5072567;28;20086;-73
2023/08/18 02:36:22;;;;;;;6.75;4.15;;;;;;;18.05;100.00;102335.66;5106048;28;20112;-72
2023/08/18 02:38:48;;;;;;;4.70;4.28;;;;;;;18.07;100.00;102336.28;5105912;28;20394;-72
2023/08/18 02:41:14;;;;;;;7.00;4.40;;;;;;;18.08;100.00;102333.34;5106088;28;20058;-72
2023/08/18 02:43:43;;;;;;;7.22;4.43;;;;;;;18.10;100.00;102333.13;5107510;28;20036;-73
2023/08/18 02:46:08;;;;;;;11.73;4.68;;;;;;;18.01;100.00;102335.25;5106946;28;20024;-73
2023/08/18 02:48:34;;;;;;;10.05;4.35;;;;;;;18.00;100.00;102330.00;5106083;28;20035;-72
2023/08/18 02:51:04;;;;;;;6.13;4.70;;;;;;;18.02;100.00;102344.25;5107658;28;20055;-72
2023/08/18 02:53:30;;;;;;;6.30;4.07;;;;;;;18.00;100.00;102336.28;5106120;28;20032;-71
2023/08/18 02:55:58;;;;;;;7.35;4.32;;;;;;;18.01;100.00;102337.97;5101319;28;20020;-73
2023/08/18 02:58:25;;;;;;;6.97;4.13;;;;;;;18.02;100.00;102338.81;5100794;28;20085;-72
2023/08/18 03:00:51;;;;;;;5.88;3.70;;;;;;;18.02;100.00;102342.38;5101103;28;20028;-73
2023/08/18 03:03:16;;;;;;;5.40;4.35;;;;;;;17.97;100.00;102330.41;5100323;28;20058;-73
2023/08/18 03:05:41;;;;;;;8.02;4.45;;;;;;;18.05;100.00;102333.78;5084459;28;20032;-73
2023/08/18 03:08:07;;;;;;;11.35;4.38;;;;;;;18.07;100.00;102339.00;5084108;28;20032;-73
2023/08/18 03:10:33;;;;;;;6.82;4.22;;;;;;;18.04;100.00;102339.41;5100988;28;20032;-72
2023/08/18 03:13:03;;;;;;;7.57;4.20;;;;;;;18.04;100.00;102353.03;5092775;28;20513;-72
2023/08/18 03:15:30;;;;;;;6.60;4.03;;;;;;;17.98;100.00;102335.69;5080574;28;20035;-72
2023/08/18 03:17:56;;;;;;;5.80;4.20;;;;;;;17.99;100.00;102342.78;5083882;28;20028;-74
2023/08/18 03:20:21;;;;;;;6.55;4.18;;;;;;;17.93;100.00;102329.19;5101067;28;20039;-73
2023/08/18 03:22:47;;;;;;;8.93;4.82;;;;;;;18.04;100.00;102342.13;5100976;28;20036;-73
2023/08/18 03:25:12;;;;;;;7.10;4.57;;;;;;;18.04;100.00;102342.97;5101167;28;20246;-73
2023/08/18 03:27:37;;;;;;;8.30;4.43;;;;;;;17.95;100.00;102327.94;5084969;28;20050;-72
2023/08/18 03:30:04;;;;;;;8.18;4.90;;;;;;;18.11;100.00;102340.25;5100821;28;20173;-72
2023/08/18 03:32:31;;;;;;;6.70;4.68;;;;;;;18.20;100.00;102333.53;5100280;28;20016;-72
2023/08/18 03:34:56;;;;;;;8.38;4.80;;;;;;;18.33;100.00;102348.19;5100160;28;20028;-73
2023/08/18 03:37:22;;;;;;;6.25;4.25;;;;;;;18.36;100.00;102353.22;5093700;28;20038;-72
2023/08/18 03:39:47;;;;;;;7.28;4.55;;;;;;;18.25;100.00;102344.63;5100036;28;20081;-73
2023/08/18 03:42:12;;;;;;;7.80;4.40;;;;;;;18.30;100.00;102344.81;5099821;28;20028;-72
2023/08/18 03:44:38;;;;;;;7.55;4.60;;;;;;;18.31;100.00;102351.97;5100431;28;20031;-72
2023/08/18 03:47:04;;;;;;;6.18;4.53;;;;;;;18.33;100.00;102353.63;5104280;28;20681;-73
2023/08/18 03:49:29;;;;;;;7.20;4.25;;;;;;;18.30;100.00;102344.81;5105913;28;20052;-72
2023/08/18 03:51:55;;;;;;;5.90;4.45;;;;;;;18.27;100.00;102338.97;5106392;28;20024;-73
2023/08/18 03:54:20;;;;;;;13.27;4.85;;;;;;;18.18;100.00;102353.84;5088973;28;20032;-72
2023/08/18 03:56:46;;;;;;;7.05;4.40;;;;;;;18.09;100.00;102350.53;5102536;28;20024;-71
2023/08/18 03:59:11;;;;;;;7.22;4.45;;;;;;;18.07;100.00;102347.16;5099078;28;20032;-73
2023/08/18 04:01:36;;;;;;;5.72;4.90;;;;;;;17.90;100.00;102346.78;5093408;28;20142;-71
2023/08/18 04:04:04;;;;;;;11.85;4.68;;;;;;;17.87;100.00;102344.47;5093844;28;20028;-73
2023/08/18 04:06:29;;;;;;;7.45;4.43;;;;;;;17.91;100.00;102342.16;5099944;28;20028;-73
2023/08/18 04:09:15;;;;;;;6.70;4.30;;;;;;;18.00;100.00;102338.16;5101191;28;20032;-73
2023/08/18 04:11:41;;;;;;;6.18;4.40;;;;;;;18.18;100.00;102334.78;5112055;28;20020;-72
2023/08/18 04:14:07;;;;;;;5.78;4.35;;;;;;;18.32;100.00;102341.91;5112548;28;20094;-73
2023/08/18 04:16:32;;;;;;;7.45;4.20;;;;;;;18.41;100.00;102345.22;5104267;28;20048;-72
2023/08/18 04:18:58;;;;;;;8.38;4.30;;;;;;;18.41;100.00;102335.19;5083388;28;20123;-71
2023/08/18 04:21:25;;;;;;;7.00;4.28;;;;;;;18.50;100.00;102335.75;5081425;28;20085;-73
2023/08/18 04:23:50;;;;;;;5.72;4.10;;;;;;;18.55;100.00;102339.53;5097900;28;20032;-72
2023/08/18 04:26:16;;;;;;;5.60;3.95;;;;;;;18.64;100.00;102336.53;5085218;28;20032;-72
2023/08/18 04:28:41;;;;;;;7.13;4.05;;;;;;;18.62;100.00;102346.84;5098641;28;20082;-73
2023/08/18 04:31:07;;;;;;;7.63;4.10;;;;;;;18.71;100.00;102340.94;5064901;28;20028;-72
2023/08/18 04:33:32;;;;;;;4.65;3.78;;;;;;;18.75;100.00;102336.75;5098457;28;20088;-72
2023/08/18 04:35:58;;;;;;;7.15;3.70;;;;;;;18.75;100.00;102327.75;5080187;28;20085;-72
2023/08/18 04:38:24;;;;;;;8.48;3.50;;;;;;;18.81;100.00;102335.06;5099349;28;20099;-71
2023/08/18 04:41:15;;;;;;;7.55;4.07;;;;;;;18.86;100.00;102334.41;5081868;28;20046;-71
2023/08/18 04:43:41;;;;;;;7.25;4.10;;;;;;;18.83;100.00;102335.66;5094778;28;20044;-72
2023/08/18 04:46:07;;;;;;;7.93;4.07;;;;;;;18.81;100.00;102323.28;5098473;28;20110;-71
2023/08/18 04:48:32;;;;;;;5.88;4.40;;;;;;;18.88;100.00;102341.31;5099850;28;20024;-71
2023/08/18 04:50:58;;;;;;;8.50;3.70;;;;;;;18.89;100.00;102342.16;5099304;28;20140;-71
2023/08/18 04:53:23;;;;;;;7.82;3.80;;;;;;;18.83;100.00;102351.19;5098365;28;20039;-71
2023/08/18 04:55:49;;;;;;;6.07;3.88;;;;;;;18.84;100.00;102344.69;5100432;28;20054;-72
2023/08/18 04:58:15;;;;;;;5.55;3.88;;;;;;;18.92;100.00;102345.28;5096887;28;20047;-71
2023/08/18 05:00:44;;;;;;;7.57;4.25;;;;;;;18.97;100.00;102348.19;5097802;28;20023;-72
2023/08/18 05:03:10;;;;;;;10.02;4.88;;;;;;;18.93;100.00;102332.47;5097375;28;20093;-70
2023/08/18 05:05:56;;;;;;;9.30;4.63;;;;;;;18.91;100.00;102331.88;5095502;28;20024;-72
2023/08/18 05:08:21;;;;;;;9.43;3.95;;;;;;;18.91;100.00;102345.50;5081312;28;20062;-72
2023/08/18 05:10:46;;;;;;;5.95;4.05;;;;;;;18.91;100.00;102340.06;5097278;28;20017;-71
2023/08/18 05:13:13;;;;;;;7.03;4.32;;;;;;;18.95;100.00;102347.56;5094091;28;20032;-71
2023/08/18 05:15:39;;;;;;;9.20;4.00;;;;;;;18.97;100.00;102344.63;5078830;28;20059;-73
2023/08/18 05:18:04;;;;;;;8.20;4.03;;;;;;;18.86;100.00;102343.41;5097458;28;20021;-71
2023/08/18 05:20:30;;;;;;;5.55;4.13;;;;;;;18.78;100.00;102336.31;5097933;28;20039;-73
2023/08/18 05:22:55;;;;;;;6.38;4.20;;;;;;;18.87;100.00;102345.06;5097178;28;20437;-72
2023/08/18 05:25:21;;;;;;;4.75;3.10;;;;;;;18.93;100.00;102341.47;5095191;28;20044;-71
2023/08/18 05:27:47;;;;;;;9.50;4.13;;;;;;;18.93;100.00;102335.19;5096039;28;20044;-71
2023/08/18 05:30:14;;;;;;;8.88;3.83;;;;;;;19.08;100.00;102340.38;5082475;28;20032;-71
2023/08/18 05:32:39;;;;;;;4.65;3.70;;;;;;;18.98;100.00;102332.66;5081200;28;20032;-72
2023/08/18 05:35:06;;;;;;;8.15;4.25;;;;;;;19.16;100.00;102324.56;5098169;28;20032;-72
2023/08/18 05:37:31;;;;;;;9.77;3.60;;;;;;;19.16;100.00;102321.00;5097490;28;20035;-70
2023/08/18 05:39:57;;;;;;;6.50;3.47;;;;;;;19.02;100.00;102295.69;5096737;28;20035;-71
2023/08/18 05:42:22;;;;;;;7.93;4.07;;;;;;;19.25;100.00;102319.69;5084471;28;20028;-72
2023/08/18 05:44:48;;;;;;;6.82;3.67;;;;;;;19.01;100.00;102318.59;5099561;28;20032;-72
2023/08/18 05:47:14;;;;;;;6.38;3.60;;;;;;;19.25;100.00;102314.25;5101908;28;20020;-72
2023/08/18 05:49:39;;;;;;;6.65;3.53;;;;;;;19.33;100.00;102315.84;5102326;28;20056;-72
2023/08/18 05:52:06;;;;;;;4.43;3.30;;;;;;;19.37;100.00;102317.09;5100754;28;20038;-73
2023/08/18 05:54:31;;;;;;;10.30;4.07;;;;;;;19.42;100.00;102314.53;5082491;28;20399;-70
2023/08/18 05:56:56;;;;;;;6.45;3.60;;;;;;;19.40;100.00;102306.59;5082997;28;20038;-73
2023/08/18 05:59:22;;;;;;;7.53;3.83;;;;;;;19.41;100.00;102323.78;5085098;28;20486;-73
2023/08/18 06:01:50;;;;;;;9.48;3.50;;;;;;;19.46;100.00;102327.50;5086246;28;20122;-72
2023/08/18 06:04:15;;;;;;;9.23;3.58;;;;;;;19.47;100.00;102312.00;5104672;28;20051;-73
2023/08/18 06:06:40;;;;;;;5.28;3.47;;;;;;;19.42;100.00;102320.00;5102921;28;20020;-73
2023/08/18 06:09:06;;;;;;;6.78;3.30;;;;;;;19.36;100.00;102326.34;5104131;28;20048;-73
2023/08/18 06:11:31;;;;;;;4.72;3.08;;;;;;;19.24;100.00;102324.31;5101087;28;20119;-73
2023/08/18 06:13:57;;;;;;;5.88;3.10;;;;;;;19.28;100.00;102319.25;5100286;28;20482;-73
2023/08/18 06:16:22;;;;;;;10.23;3.65;;;;;;;19.25;100.00;102323.25;5095030;28;20133;-73
2023/08/18 06:18:48;;;;;;;11.25;3.60;;;;;;;19.14;100.00;102323.97;5100259;28;20031;-73
2023/08/18 06:21:13;;;;;;;6.05;3.50;;;;;;;19.33;100.00;102329.50;5100353;28;20034;-73
2023/08/18 06:23:38;;;;;;;4.72;3.45;;;;;;;19.34;100.00;102314.81;5099742;28;20054;-73
2023/08/18 06:26:04;;;;;;;8.85;3.05;;;;;;;19.36;100.00;102315.41;5067102;28;20095;-73
2023/08/18 06:28:29;;;;;;;6.10;3.35;;;;;;;19.45;100.00;102338.66;5083033;28;20460;-73
2023/08/18 06:31:06;;;;;;;6.32;3.35;;;;;;;19.50;100.00;102330.63;5102090;28;20023;-73
2023/08/18 06:33:36;;;;;;;5.25;3.38;;;;;;;19.49;100.00;102339.88;5104348;28;20541;-73
2023/08/18 06:36:03;;;;;;;8.00;3.40;;;;;;;19.72;100.00;102342.06;5102144;28;20461;-73
2023/08/18 06:38:29;;;;;;;5.75;2.85;;;;;;;19.73;100.00;102337.44;5099988;28;20042;-72
2023/08/18 06:40:54;;;;;;;7.82;3.05;;;;;;;19.81;100.00;102340.72;5100541;28;20110;-73
2023/08/18 06:43:20;;;;;;;4.35;2.92;;;;;;;19.68;100.00;102330.75;5101209;28;20476;-73
2023/08/18 06:45:46;;;;;;;5.80;3.10;;;;;;;19.70;100.00;102334.09;5101375;28;20028;-72
2023/08/18 06:48:11;;;;;;;5.28;2.83;;;;;;;19.66;100.00;102321.09;5101554;28;20441;-73
2023/08/18 06:50:37;;;;;;;7.00;2.88;;;;;;;19.80;100.00;102333.59;5101620;28;20052;-73
2023/08/18 06:53:03;;;;;;;6.38;2.90;;;;;;;19.93;100.00;102327.16;5101332;28;20043;-74
2023/08/18 06:55:28;;;;;;;8.05;3.00;;;;;;;19.72;100.00;102314.75;5101068;28;20038;-73
2023/08/18 06:57:54;;;;;;;7.70;2.60;;;;;;;20.03;100.00;102338.41;5102820;28;20016;-73
2023/08/18 07:00:20;;;;;;;7.75;3.25;;;;;;;20.14;100.00;102340.41;5084852;28;20089;-73
2023/08/18 07:02:47;;;;;;;5.93;2.70;;;;;;;20.20;100.00;102333.22;5102326;28;20047;-73
2023/08/18 07:05:12;;;;;;;6.95;3.00;;;;;;;20.31;100.00;102337.09;5098914;28;20020;-73
2023/08/18 07:07:38;;;;;;;5.57;2.92;;;;;;;20.24;100.00;102344.53;5101223;28;20529;-73
2023/08/18 07:10:04;;;;;;;7.07;2.47;;;;;;;20.36;100.00;102343.56;5101494;28;20533;-72
2023/08/18 07:12:29;;;;;;;6.90;2.78;;;;;;;20.35;100.00;102346.50;5082936;28;20458;-73
2023/08/18 07:14:54;;;;;;;4.20;2.80;;;;;;;20.53;100.00;102342.97;5103583;28;20161;-73
2023/08/18 07:17:20;;;;;;;5.82;2.92;;;;;;;20.64;100.00;102343.03;5106924;28;20111;-73
2023/08/18 07:19:45;;;;;;;3.65;2.60;;;;;;;20.75;100.00;102344.16;5105403;28;20028;-73
2023/08/18 07:22:11;;;;;;;6.05;2.97;;;;;;;20.75;100.00;102343.34;5101453;28;20036;-73
2023/08/18 07:24:36;;;;;;;7.53;2.70;;;;;;;20.68;100.00;102345.31;5102319;28;20032;-74
2023/08/18 07:27:03;;;;;;;8.02;2.60;;;;;;;20.60;100.00;102339.09;5100988;28;20455;-73
2023/08/18 07:29:28;;;;;;;12.40;2.90;;;;;;;20.67;100.00;102349.13;5103532;28;20526;-73
2023/08/18 07:31:55;;;;;;;8.02;2.70;;;;;;;20.86;100.00;102348.03;5101887;28;20024;-73
2023/08/18 07:34:20;;;;;;;8.48;2.58;;;;;;;20.85;100.00;102351.84;5100813;28;20032;-73
2023/08/18 07:36:46;;;;;;;7.43;2.25;;;;;;;20.92;100.00;102358.06;5101073;28;20031;-73
2023/08/18 07:39:12;;;;;;;5.38;2.55;;;;;;;20.85;100.00;102360.03;5082459;28;20032;-73
2023/08/18 07:41:40;;;;;;;3.97;2.20;;;;;;;20.78;100.00;102362.88;5106220;28;20099;-73
2023/08/18 07:44:07;;;;;;;6.05;2.35;;;;;;;20.75;100.00;102368.78;5100722;28;20054;-73
2023/08/18 07:46:33;;;;;;;5.60;2.10;;;;;;;20.75;100.00;102366.06;5098574;28;20111;-73
2023/08/18 07:48:58;;;;;;;6.65;2.10;;;;;;;20.58;100.00;102365.00;5082773;28;20059;-73
2023/08/18 07:51:24;;;;;;;5.18;2.35;;;;;;;20.77;100.00;102352.16;5083902;28;20074;-72
2023/08/18 07:53:49;;;;;;;3.83;2.08;;;;;;;20.70;100.00;102356.88;5101774;28;20040;-73
2023/08/18 07:56:15;;;;;;;3.60;1.80;;;;;;;20.60;100.00;102362.88;5101075;28;20024;-73
2023/08/18 07:58:40;;;;;;;5.15;2.05;;;;;;;20.44;100.00;102345.16;5083727;28;20032;-73
2023/08/18 08:01:06;;;;;;;3.70;1.80;;;;;;;20.96;100.00;102361.16;5101136;28;20036;-72
2023/08/18 08:03:32;;;;;;;3.08;1.90;;;;;;;21.20;100.00;102353.91;5085203;28;20032;-73
2023/08/18 08:05:57;;;;;;;3.90;1.90;;;;;;;21.03;100.00;102343.59;5083312;28;20485;-73
2023/08/18 08:08:23;;;;;;;4.70;2.00;;;;;;;21.31;100.00;102356.66;5103789;28;20024;-73
2023/08/18 08:10:49;;;;;;;6.65;2.00;;;;;;;21.42;100.00;102365.19;5103750;28;20020;-73
2023/08/18 08:13:15;;;;;;;3.80;1.77;;;;;;;21.34;100.00;102358.97;5103091;28;20020;-73
2023/08/18 08:15:45;;;;;;;3.53;1.80;;;;;;;21.25;100.00;102362.25;5106065;28;20134;-73
2023/08/18 08:18:13;;;;;;;5.05;1.60;;;;;;;21.28;100.00;102361.78;5089014;28;20504;-73
2023/08/18 08:20:40;;;;;;;2.20;1.50;;;;;;;21.08;100.00;102357.41;5087854;28;20078;-73
2023/08/18 08:23:06;;;;;;;4.97;1.80;;;;;;;21.19;100.00;102357.69;5101972;28;20031;-73
2023/08/18 08:25:33;;;;;;;2.85;1.67;;;;;;;21.39;100.00;102363.78;5084283;28;20039;-74
2023/08/18 08:27:59;;;;;;;4.78;1.80;;;;;;;21.35;100.00;102359.81;5101577;28;20024;-73
2023/08/18 08:30:24;;;;;;;4.40;1.55;;;;;;;21.23;100.00;102353.44;5100973;28;20046;-73
2023/08/18 08:32:50;;;;;;;3.80;1.55;;;;;;;21.49;100.00;102355.81;5080059;28;20046;-73
2023/08/18 08:35:16;;;;;;;2.67;1.50;;;;;;;21.64;100.00;102351.78;5065688;28;20024;-72
2023/08/18 08:37:41;;;;;;;3.38;1.50;;;;;;;21.85;100.00;102351.19;5103472;28;20028;-72
2023/08/18 08:40:15;;;;;;;2.63;1.60;;;;;;;21.75;100.00;102353.69;5097809;28;20043;-73
2023/08/18 08:42:40;;;;;;;4.32;1.60;;;;;;;21.62;100.00;102357.47;5098395;28;20019;-73
2023/08/18 08:45:06;;;;;;;2.97;1.70;;;;;;;21.70;100.00;102356.31;5102179;28;20066;-73
2023/08/18 08:47:32;;;;;;;3.78;1.58;;;;;;;21.33;100.00;102338.13;5082695;28;20024;-73
2023/08/18 08:50:01;;;;;;;3.92;1.60;;;;;;;21.55;100.00;102357.59;5101384;28;20084;-73
2023/08/18 08:52:31;;;;;;;2.35;1.50;;;;;;;21.04;100.00;102337.06;5102948;28;20116;-73
2023/08/18 08:55:00;;;;;;;4.57;1.48;;;;;;;21.27;100.00;102350.00;5100125;28;20082;-73
2023/08/18 08:57:26;;;;;;;2.85;1.50;;;;;;;21.53;100.00;102350.69;5099179;28;20024;-73
2023/08/18 08:59:51;;;;;;;5.90;1.85;;;;;;;21.62;100.00;102357.47;5082003;28;20115;-73
2023/08/18 09:02:17;;;;;;;3.03;1.55;;;;;;;21.36;100.00;102342.31;5098902;28;20028;-73
2023/08/18 09:04:42;;;;;;;3.28;1.38;;;;;;;21.63;100.00;102366.56;5100218;28;20386;-73
2023/08/18 09:07:12;;;;;;;4.07;1.40;;;;;;;21.82;99.79;102368.16;5100906;28;20024;-73
2023/08/18 09:09:38;;;;;;;3.65;1.50;;;;;;;21.90;99.73;102353.25;5066473;28;20058;-73
2023/08/18 09:12:07;;;;;;;2.97;1.40;;;;;;;21.72;98.32;102365.13;5100634;28;20032;-74
2023/08/18 09:14:34;;;;;;;3.42;1.38;;;;;;;21.85;96.87;102366.81;5099549;28;20143;-74
2023/08/18 09:17:01;;;;;;;4.05;1.50;;;;;;;22.03;96.05;102358.50;5099596;28;20119;-74
2023/08/18 09:19:26;;;;;;;3.03;1.40;;;;;;;21.91;95.84;102361.22;5109287;28;20031;-73
2023/08/18 09:21:52;;;;;;;4.43;1.40;;;;;;;21.83;94.63;102363.50;5093398;28;20027;-73
2023/08/18 09:24:22;;;;;;;1.83;1.23;;;;;;;21.86;94.86;102366.59;5094196;28;20055;-74
2023/08/18 09:26:47;;;;;;;4.03;1.35;;;;;;;21.56;94.34;102353.81;5102196;28;20213;-74
2023/08/18 09:29:12;;;;;;;3.78;1.42;;;;;;;21.56;93.66;102358.44;5099527;28;20038;-74
2023/08/18 09:31:38;;;;;;;3.72;1.50;;;;;;;21.92;93.01;102362.91;5078360;28;20057;-73
2023/08/18 09:34:03;;;;;;;4.40;1.60;;;;;;;21.70;93.14;102359.06;5094752;28;20034;-74
2023/08/18 09:36:31;;;;;;;3.60;1.30;;;;;;;22.08;91.83;102349.56;5102675;28;20047;-75
2023/08/18 09:38:57;;;;;;;2.20;1.30;;;;;;;22.03;91.24;102353.84;5101617;28;20031;-73
2023/08/18 09:41:23;;;;;;;2.10;1.40;;;;;;;21.99;91.44;102358.16;5100948;28;20105;-73
2023/08/18 09:43:49;;;;;;;2.75;1.30;;;;;;;22.19;90.47;102348.75;5096296;28;20035;-74
2023/08/18 09:46:17;;;;;;;4.65;1.70;;;;;;;21.94;91.15;102355.25;5079072;28;20032;-74
2023/08/18 09:48:47;;;;;;;2.47;1.63;;;;;;;21.97;91.14;102352.06;5102630;28;20032;-73
2023/08/18 09:51:13;;;;;;;2.45;1.60;;;;;;;22.14;91.64;102356.81;5098439;28;20043;-74
2023/08/18 09:53:49;;;;;;;3.00;1.50;;;;;;;22.21;91.73;102344.69;5095042;28;20032;-74
2023/08/18 09:56:23;;;;;;;2.63;1.35;;;;;;;22.01;91.71;102336.78;5088608;28;20115;-74
2023/08/18 09:58:58;;;;;;;6.35;1.92;;;;;;;22.11;92.53;102349.91;5090610;28;20024;-73
2023/08/18 10:01:29;;;;;;;2.50;1.42;;;;;;;21.92;91.85;102323.69;5089736;28;20031;-74
2023/08/18 10:03:54;;;;;;;2.60;1.70;;;;;;;21.98;92.93;102340.00;5090901;28;20016;-73
2023/08/18 10:06:21;;;;;;;1.75;1.52;;;;;;;21.95;93.32;102335.03;5079826;28;20039;-73
2023/08/18 10:08:47;;;;;;;2.85;1.65;;;;;;;22.07;93.42;102331.44;5097082;28;20035;-73
2023/08/18 10:11:14;;;;;;;2.55;1.75;;;;;;;22.00;93.57;102323.34;5096612;28;20024;-73
2023/08/18 10:13:40;;;;;;;2.80;1.73;;;;;;;22.08;93.77;102331.19;5082081;28;20036;-73
2023/08/18 10:16:06;;;;;;;3.85;1.50;;;;;;;22.10;93.52;102320.00;5100553;28;20024;-73
2023/08/18 10:18:32;;;;;;;6.38;2.05;;;;;;;22.17;93.49;102334.44;5100111;28;20038;-73
2023/08/18 10:20:58;;;;;;;2.88;1.90;;;;;;;22.19;92.96;102337.78;5099939;28;20046;-74
2023/08/18 10:23:28;;;;;;;5.78;1.90;;;;;;;22.12;93.44;102334.28;5082939;28;20065;-73
2023/08/18 10:25:53;;;;;;;2.55;1.50;;;;;;;21.86;94.58;102335.63;5098648;28;20043;-73
2023/08/18 10:28:20;;;;;;;3.45;1.55;;;;;;;21.97;94.06;102324.66;5099649;28;20024;-73
2023/08/18 10:31:00;;;;;;;1.98;1.55;;;;;;;22.02;93.46;102324.78;5099200;28;20036;-73
2023/08/18 10:33:38;;;;;;;1.80;1.40;;;;;;;22.11;92.74;102321.66;5100827;28;20059;-74
2023/08/18 10:36:06;;;;;;;4.28;1.75;;;;;;;22.12;93.36;102323.31;5098697;28;20028;-73
2023/08/18 10:38:36;;;;;;;2.60;1.60;;;;;;;22.17;92.99;102326.22;5099741;28;20119;-73
2023/08/18 10:41:02;;;;;;;3.20;1.70;;;;;;;22.14;93.04;102316.53;5098343;28;20032;-74
2023/08/18 10:43:28;;;;;;;2.50;1.50;;;;;;;22.17;93.69;102323.47;5099214;28;20032;-73
2023/08/18 10:45:59;;;;;;;1.77;1.48;;;;;;;22.24;92.65;102310.47;5097113;28;20510;-73
2023/08/18 10:48:35;;;;;;;2.65;1.50;;;;;;;22.17;92.76;102304.28;5099829;28;20165;-73
2023/08/18 10:51:00;;;;;;;1.70;1.52;;;;;;;22.12;92.78;102317.84;5082350;28;20048;-74
2023/08/18 10:53:33;;;;;;;2.20;1.48;;;;;;;22.10;92.22;102320.00;5098882;28;20032;-74
2023/08/18 10:55:59;;;;;;;3.85;1.42;;;;;;;22.13;92.35;102317.63;5096549;28;20494;-74
2023/08/18 10:58:24;;;;;;;2.88;1.40;;;;;;;22.10;91.94;102322.75;5100748;28;20067;-75
2023/08/18 11:00:50;;;;;;;2.83;1.42;;;;;;;22.22;91.91;102321.69;5099986;28;20083;-75
2023/08/18 11:03:15;;;;;;;3.35;1.23;;;;;;;22.25;91.33;102312.13;5099728;28;20540;-74
2023/08/18 11:05:41;;;;;;;3.35;1.33;;;;;;;21.72;92.57;102310.34;5097991;28;20024;-75
2023/08/18 11:08:09;;;;;;;1.38;1.20;;;;;;;22.15;91.96;102312.75;5098762;28;20117;-74
2023/08/18 11:10:37;;;;;;;4.32;1.45;;;;;;;21.80;92.91;102266.16;5100157;28;20035;-75
2023/08/18 11:13:03;;;;;;;2.33;1.30;;;;;;;21.88;92.94;102311.53;5099844;28;20060;-74
2023/08/18 11:15:29;;;;;;;3.25;1.30;;;;;;;21.58;93.35;102283.16;5100483;28;20024;-75
2023/08/18 11:17:55;;;;;;;3.10;1.17;;;;;;;21.67;93.74;102299.25;5101308;28;20055;-75